Time,TemperatureF,DewpointF,PressureIn,WindDirection,WindDirectionDegrees,WindSpeedMPH,WindSpeedGustMPH,Humidity,HourlyPrecipIn,Conditions,Clouds,dailyrainin,SoftwareType,DateUTC
2013-07-13 00:07:00,66.3,61.0,30.05,NNE,16,0.0,2.0,83,0.00,,,0.00,weatherlink.com 1.10,2013-07-13 04:07:00,
2013-07-13 00:22:00,66.0,61.0,30.05,NE,44,0.0,0.0,84,0.00,,,0.00,weatherlink.com 1.10,2013-07-13 04:22:00,
2013-07-13 00:37:00,65.3,61.0,30.06,NE,42,0.0,0.0,85,0.00,,,0.00,weatherlink.com 1.10,2013-07-13 04:37:00,
2013-07-13 00:52:00,64.9,61.0,30.06,NE,40,0.0,0.0,86,0.00,,,0.00,weatherlink.com 1.10,2013-07-13 04:52:00,
2013-07-13 01:07:00,64.0,60.0,30.05,NE,40,0.0,0.0,88,0.00,,,0.00,weatherlink.com 1.10,2013-07-13 05:07:00,
2013-07-13 01:22:00,63.5,60.0,30.05,NE,35,0.0,0.0,89,0.00,,,0.00,weatherlink.com 1.10,2013-07-13 05:22:00,
2013-07-13 01:37:00,63.7,60.0,30.05,NNE,16,0.0,0.0,88,0.00,,,0.00,weatherlink.com 1.10,2013-07-13 05:37:00,
2013-07-13 01:52:00,63.6,60.0,30.05,NNE,16,0.0,0.0,88,0.00,,,0.00,weatherlink.com 1.10,2013-07-13 05:52:00,
2013-07-13 02:07:00,62.9,60.0,30.05,NNE,16,0.0,0.0,89,0.00,,,0.00,weatherlink.com 1.10,2013-07-13 06:07:00,
2013-07-13 02:22:00,62.1,60.0,30.05,NNE,16,0.0,0.0,91,0.00,,,0.00,weatherlink.com 1.10,2013-07-13 06:22:00,
2013-07-13 02:37:00,61.7,59.0,30.06,NNE,16,0.0,0.0,92,0.00,,,0.00,weatherlink.com 1.10,2013-07-13 06:37:00,
2013-07-13 02:52:00,61.8,60.0,30.05,NNE,16,0.0,0.0,92,0.00,,,0.00,weatherlink.com 1.10,2013-07-13 06:52:00,
2013-07-13 03:07:00,62.2,60.0,30.05,NNE,32,0.0,1.0,91,0.00,,,0.00,weatherlink.com 1.10,2013-07-13 07:07:00,
2013-07-13 03:22:00,61.4,59.0,30.05,NNE,32,0.0,0.0,92,0.00,,,0.00,weatherlink.com 1.10,2013-07-13 07:22:00,
2013-07-13 03:37:00,61.2,59.0,30.06,NNE,32,0.0,1.0,93,0.00,,,0.00,weatherlink.com 1.10,2013-07-13 07:37:00,
2013-07-13 03:52:00,61.3,59.0,30.05,North,8,0.0,1.0,93,0.00,,,0.00,weatherlink.com 1.10,2013-07-13 07:52:00,
2013-07-13 04:07:00,61.5,59.0,30.05,North,352,1.0,1.0,92,0.00,,,0.00,weatherlink.com 1.10,2013-07-13 08:07:00,
2013-07-13 04:22:00,61.8,59.0,30.06,NNE,18,2.0,2.0,91,0.00,,,0.00,weatherlink.com 1.10,2013-07-13 08:22:00,
2013-07-13 04:37:00,61.7,59.0,30.07,NE,44,0.0,2.0,91,0.00,,,0.00,weatherlink.com 1.10,2013-07-13 08:37:00,
2013-07-13 04:52:00,61.5,59.0,30.07,NNE,27,0.0,1.0,91,0.00,,,0.00,weatherlink.com 1.10,2013-07-13 08:52:00,
2013-07-13 05:07:00,61.2,59.0,30.07,ESE,103,0.0,1.0,92,0.00,,,0.00,weatherlink.com 1.10,2013-07-13 09:07:00,
2013-07-13 05:22:00,60.8,59.0,30.07,SSW,212,0.0,1.0,93,0.00,,,0.00,weatherlink.com 1.10,2013-07-13 09:22:00,
2013-07-13 05:37:00,60.7,59.0,30.08,NW,314,0.0,1.0,93,0.00,,,0.00,weatherlink.com 1.10,2013-07-13 09:37:00,
2013-07-13 05:52:00,60.7,59.0,30.08,ENE,60,0.0,1.0,94,0.00,,,0.00,weatherlink.com 1.10,2013-07-13 09:52:00,
2013-07-13 06:07:00,60.6,59.0,30.07,NE,35,0.0,1.0,94,0.00,,,0.00,weatherlink.com 1.10,2013-07-13 10:07:00,
2013-07-13 06:22:00,60.5,59.0,30.08,NE,53,0.0,1.0,94,0.00,,,0.00,weatherlink.com 1.10,2013-07-13 10:22:00,
2013-07-13 06:37:00,60.5,59.0,30.07,SE,139,1.0,1.0,94,0.00,,,0.00,weatherlink.com 1.10,2013-07-13 10:37:00,
2013-07-13 06:52:00,60.6,59.0,30.08,SSE,156,0.0,1.0,94,0.00,,,0.00,weatherlink.com 1.10,2013-07-13 10:52:00,
2013-07-13 07:07:00,61.2,60.0,30.08,SSE,167,0.0,2.0,94,0.00,,,0.00,weatherlink.com 1.10,2013-07-13 11:07:00,
2013-07-13 07:22:00,62.1,60.0,30.09,ESE,107,0.0,2.0,93,0.00,,,0.00,weatherlink.com 1.10,2013-07-13 11:22:00,
2013-07-13 07:37:00,63.3,61.0,30.09,East,87,0.0,2.0,93,0.00,,,0.00,weatherlink.com 1.10,2013-07-13 11:37:00,
2013-07-13 07:52:00,65.9,63.0,30.09,NE,37,0.0,4.0,89,0.00,,,0.00,weatherlink.com 1.10,2013-07-13 11:52:00,
2013-07-13 08:07:00,67.6,63.0,30.08,North,6,1.0,3.0,84,0.00,,,0.00,weatherlink.com 1.10,2013-07-13 12:07:00,
2013-07-13 08:22:00,69.5,64.0,30.08,South,189,1.0,3.0,83,0.00,,,0.00,weatherlink.com 1.10,2013-07-13 12:22:00,
2013-07-13 08:38:00,70.3,65.0,30.08,NNE,25,0.0,5.0,82,0.00,,,0.00,weatherlink.com 1.10,2013-07-13 12:38:00,
2013-07-13 08:53:00,72.7,65.0,30.08,SE,141,1.0,4.0,77,0.00,,,0.00,weatherlink.com 1.10,2013-07-13 12:53:00,
2013-07-13 09:08:00,74.9,66.0,30.08,NNW,346,0.0,2.0,74,0.00,,,0.00,weatherlink.com 1.10,2013-07-13 13:08:00,
2013-07-13 09:23:00,74.6,66.0,30.09,West,259,1.0,5.0,75,0.00,,,0.00,weatherlink.com 1.10,2013-07-13 13:23:00,
2013-07-13 09:38:00,75.7,66.0,30.09,ENE,71,1.0,3.0,72,0.00,,,0.00,weatherlink.com 1.10,2013-07-13 13:38:00,
2013-07-13 09:53:00,77.7,68.0,30.08,ESE,113,1.0,4.0,71,0.00,,,0.00,weatherlink.com 1.10,2013-07-13 13:53:00,
2013-07-13 10:08:00,78.1,67.0,30.08,SSE,152,1.0,4.0,68,0.00,,,0.00,weatherlink.com 1.10,2013-07-13 14:08:00,
2013-07-13 10:23:00,78.9,67.0,30.08,West,277,1.0,6.0,67,0.00,,,0.00,weatherlink.com 1.10,2013-07-13 14:23:00,
2013-07-13 10:38:00,78.5,67.0,30.09,ENE,72,2.0,7.0,67,0.00,,,0.00,weatherlink.com 1.10,2013-07-13 14:38:00,
2013-07-13 10:53:00,78.2,67.0,30.09,NNW,338,2.0,6.0,68,0.00,,,0.00,weatherlink.com 1.10,2013-07-13 14:53:00,
2013-07-13 11:08:00,79.2,67.0,30.08,ENE,72,1.0,5.0,67,0.00,,,0.00,weatherlink.com 1.10,2013-07-13 15:08:00,
2013-07-13 11:23:00,79.8,68.0,30.08,WNW,298,1.0,6.0,67,0.00,,,0.00,weatherlink.com 1.10,2013-07-13 15:23:00,
2013-07-13 11:38:00,79.6,67.0,30.08,SSW,198,3.0,7.0,65,0.00,,,0.00,weatherlink.com 1.10,2013-07-13 15:38:00,
2013-07-13 11:53:00,80.4,67.0,30.09,North,352,2.0,6.0,63,0.00,,,0.00,weatherlink.com 1.10,2013-07-13 15:53:00,
2013-07-13 12:08:00,81.3,66.0,30.09,NW,316,2.0,7.0,61,0.00,,,0.00,weatherlink.com 1.10,2013-07-13 16:08:00,
2013-07-13 12:23:00,81.1,67.0,30.09,SW,215,1.0,6.0,62,0.00,,,0.00,weatherlink.com 1.10,2013-07-13 16:23:00,
2013-07-13 12:38:00,80.8,66.0,30.09,West,270,1.0,6.0,62,0.00,,,0.00,weatherlink.com 1.10,2013-07-13 16:38:00,
2013-07-13 12:53:00,80.6,66.0,30.09,SSE,155,1.0,6.0,62,0.00,,,0.00,weatherlink.com 1.10,2013-07-13 16:53:00,
2013-07-13 13:08:00,81.1,67.0,30.08,NNE,13,0.0,3.0,62,0.00,,,0.00,weatherlink.com 1.10,2013-07-13 17:08:00,
2013-07-13 13:23:00,81.5,67.0,30.08,NE,53,0.0,6.0,61,0.00,,,0.00,weatherlink.com 1.10,2013-07-13 17:23:00,
2013-07-13 13:38:00,82.4,67.0,30.08,WSW,249,2.0,7.0,60,0.00,,,0.00,weatherlink.com 1.10,2013-07-13 17:38:00,
2013-07-13 13:53:00,80.5,66.0,30.08,East,98,1.0,5.0,62,0.00,,,0.00,weatherlink.com 1.10,2013-07-13 17:53:00,
2013-07-13 14:08:00,81.0,66.0,30.08,North,9,3.0,5.0,61,0.00,,,0.00,weatherlink.com 1.10,2013-07-13 18:08:00,
2013-07-13 14:23:00,82.3,68.0,30.07,East,96,3.0,6.0,63,0.00,,,0.00,weatherlink.com 1.10,2013-07-13 18:23:00,
2013-07-13 14:38:00,83.6,68.0,30.07,WNW,290,2.0,5.0,59,0.00,,,0.00,weatherlink.com 1.10,2013-07-13 18:38:00,
2013-07-13 14:53:00,84.1,68.0,30.07,SE,142,2.0,9.0,58,0.00,,,0.00,weatherlink.com 1.10,2013-07-13 18:53:00,
2013-07-13 15:08:00,84.0,67.0,30.07,NW,311,3.0,7.0,56,0.00,,,0.00,weatherlink.com 1.10,2013-07-13 19:08:00,
2013-07-13 15:23:00,84.4,67.0,30.05,SW,235,2.0,8.0,56,0.00,,,0.00,weatherlink.com 1.10,2013-07-13 19:23:00,
2013-07-13 15:38:00,83.7,67.0,30.05,East,80,3.0,5.0,57,0.00,,,0.00,weatherlink.com 1.10,2013-07-13 19:38:00,
2013-07-13 15:53:00,84.7,66.0,30.05,ENE,77,4.0,5.0,54,0.00,,,0.00,weatherlink.com 1.10,2013-07-13 19:53:00,
2013-07-13 16:08:00,83.7,66.0,30.05,SE,139,0.0,5.0,55,0.00,,,0.00,weatherlink.com 1.10,2013-07-13 20:08:00,
2013-07-13 16:23:00,84.5,67.0,30.05,WNW,287,1.0,7.0,56,0.00,,,0.00,weatherlink.com 1.10,2013-07-13 20:23:00,
2013-07-13 16:38:00,84.3,67.0,30.05,SSW,211,1.0,6.0,57,0.00,,,0.00,weatherlink.com 1.10,2013-07-13 20:38:00,
2013-07-13 16:53:00,85.7,67.0,30.05,WSW,245,2.0,7.0,54,0.00,,,0.00,weatherlink.com 1.10,2013-07-13 20:53:00,
2013-07-13 17:08:00,85.5,66.0,30.05,NE,40,1.0,7.0,53,0.00,,,0.00,weatherlink.com 1.10,2013-07-13 21:08:00,
2013-07-13 17:23:00,84.9,67.0,30.05,ESE,110,1.0,9.0,55,0.00,,,0.00,weatherlink.com 1.10,2013-07-13 21:23:00,
2013-07-13 17:38:00,83.6,65.0,30.05,WSW,243,0.0,9.0,54,0.00,,,0.00,weatherlink.com 1.10,2013-07-13 21:38:00,
2013-07-13 17:53:00,84.8,66.0,30.04,South,191,1.0,7.0,53,0.00,,,0.00,weatherlink.com 1.10,2013-07-13 21:53:00,
2013-07-13 18:09:00,84.1,65.0,30.05,East,79,3.0,6.0,53,0.00,,,0.00,weatherlink.com 1.10,2013-07-13 22:09:00,
2013-07-13 18:24:00,83.9,66.0,30.05,NNE,13,0.0,4.0,55,0.00,,,0.00,weatherlink.com 1.10,2013-07-13 22:24:00,
2013-07-13 18:39:00,83.4,65.0,30.05,ENE,70,4.0,7.0,54,0.00,,,0.00,weatherlink.com 1.10,2013-07-13 22:39:00,
2013-07-13 18:54:00,82.3,64.0,30.05,North,360,2.0,6.0,55,0.00,,,0.00,weatherlink.com 1.10,2013-07-13 22:54:00,
2013-07-13 19:09:00,83.3,65.0,30.05,SE,132,3.0,8.0,54,0.00,,,0.00,weatherlink.com 1.10,2013-07-13 23:09:00,
2013-07-13 19:24:00,84.0,66.0,30.05,SSE,165,2.0,5.0,55,0.00,,,0.00,weatherlink.com 1.10,2013-07-13 23:24:00,
2013-07-13 19:39:00,83.4,64.0,30.05,ESE,110,3.0,6.0,53,0.00,,,0.00,weatherlink.com 1.10,2013-07-13 23:39:00,
2013-07-13 19:54:00,83.2,65.0,30.05,East,101,3.0,7.0,54,0.00,,,0.00,weatherlink.com 1.10,2013-07-13 23:54:00,
2013-07-13 20:09:00,81.9,65.0,30.06,ENE,65,2.0,7.0,56,0.00,,,0.00,weatherlink.com 1.10,2013-07-14 00:09:00,
2013-07-13 20:24:00,80.7,64.0,30.05,East,90,1.0,5.0,58,0.00,,,0.00,weatherlink.com 1.10,2013-07-14 00:24:00,
2013-07-13 20:39:00,80.0,65.0,30.06,NE,50,0.0,3.0,60,0.00,,,0.00,weatherlink.com 1.10,2013-07-14 00:39:00,
2013-07-13 20:54:00,79.2,65.0,30.06,ENE,69,2.0,2.0,63,0.00,,,0.00,weatherlink.com 1.10,2013-07-14 00:54:00,
2013-07-13 21:09:00,78.5,66.0,30.06,East,96,0.0,4.0,65,0.00,,,0.00,weatherlink.com 1.10,2013-07-14 01:09:00,
2013-07-13 21:24:00,77.7,65.0,30.06,SE,130,1.0,3.0,66,0.00,,,0.00,weatherlink.com 1.10,2013-07-14 01:24:00,
2013-07-13 21:39:00,77.2,65.0,30.06,ENE,67,2.0,5.0,67,0.00,,,0.00,weatherlink.com 1.10,2013-07-14 01:39:00,
2013-07-13 21:54:00,76.5,65.0,30.07,SE,127,0.0,2.0,68,0.00,,,0.00,weatherlink.com 1.10,2013-07-14 01:54:00,
2013-07-13 22:09:00,75.4,65.0,30.08,SE,127,0.0,1.0,71,0.00,,,0.00,weatherlink.com 1.10,2013-07-14 02:09:00,
2013-07-13 22:24:00,74.7,65.0,30.08,ESE,108,0.0,1.0,72,0.00,,,0.00,weatherlink.com 1.10,2013-07-14 02:24:00,
2013-07-13 22:39:00,74.2,65.0,30.09,East,101,0.0,1.0,74,0.00,,,0.00,weatherlink.com 1.10,2013-07-14 02:39:00,
2013-07-13 22:54:00,73.7,65.0,30.10,NNW,345,0.0,1.0,75,0.00,,,0.00,weatherlink.com 1.10,2013-07-14 02:54:00,
2013-07-13 23:09:00,74.0,66.0,30.10,East,101,1.0,2.0,75,0.00,,,0.00,weatherlink.com 1.10,2013-07-14 03:09:00,
2013-07-13 23:24:00,73.4,65.0,30.11,SE,145,0.0,1.0,76,0.00,,,0.00,weatherlink.com 1.10,2013-07-14 03:24:00,
2013-07-13 23:39:00,72.9,65.0,30.11,ENE,70,0.0,2.0,77,0.00,,,0.00,weatherlink.com 1.10,2013-07-14 03:39:00,
2013-07-13 23:54:00,72.6,65.0,30.10,East,100,0.0,2.0,78,0.00,,,0.00,weatherlink.com 1.10,2013-07-14 03:54:00,